sensor_id;sensor_type;location;lat;lon;timestamp;P1;durP1;ratioP1;P2;durP2;ratioP2
39698;SDS011;25372;50.582;12.250;2023-10-19T00:03:09;4.40;;;2.58;;
39698;SDS011;25372;50.582;12.250;2023-10-19T00:13:31;10.73;;;3.33;;
39698;SDS011;25372;50.582;12.250;2023-10-19T00:23:56;4.88;;;3.25;;
39698;SDS011;25372;50.582;12.250;2023-10-19T00:34:25;4.88;;;2.40;;
39698;SDS011;25372;50.582;12.250;2023-10-19T00:44:47;11.88;;;2.80;;
39698;SDS011;25372;50.582;12.250;2023-10-19T00:55:09;5.05;;;2.42;;
39698;SDS011;25372;50.582;12.250;2023-10-19T01:05:34;7.20;;;2.80;;
39698;SDS011;25372;50.582;12.250;2023-10-19T01:15:58;3.63;;;2.30;;
39698;SDS011;25372;50.582;12.250;2023-10-19T01:26:20;8.45;;;3.08;;
39698;SDS011;25372;50.582;12.250;2023-10-19T01:36:45;4.03;;;2.58;;
39698;SDS011;25372;50.582;12.250;2023-10-19T01:47:10;6.32;;;2.97;;
39698;SDS011;25372;50.582;12.250;2023-10-19T01:57:31;4.65;;;2.92;;
39698;SDS011;25372;50.582;12.250;2023-10-19T02:07:54;5.30;;;3.28;;
39698;SDS011;25372;50.582;12.250;2023-10-19T02:18:15;6.63;;;3.35;;
39698;SDS011;25372;50.582;12.250;2023-10-19T02:28:38;3.58;;;2.92;;
39698;SDS011;25372;50.582;12.250;2023-10-19T02:38:59;6.93;;;3.45;;
39698;SDS011;25372;50.582;12.250;2023-10-19T02:49:28;5.75;;;3.28;;
39698;SDS011;25372;50.582;12.250;2023-10-19T02:59:49;7.55;;;4.07;;
39698;SDS011;25372;50.582;12.250;2023-10-19T03:10:12;3.40;;;3.08;;
39698;SDS011;25372;50.582;12.250;2023-10-19T03:20:42;5.82;;;3.78;;
39698;SDS011;25372;50.582;12.250;2023-10-19T03:31:05;8.18;;;4.43;;
39698;SDS011;25372;50.582;12.250;2023-10-19T03:41:25;7.00;;;4.57;;
39698;SDS011;25372;50.582;12.250;2023-10-19T03:51:48;8.65;;;4.13;;
39698;SDS011;25372;50.582;12.250;2023-10-19T04:02:20;6.15;;;3.88;;
39698;SDS011;25372;50.582;12.250;2023-10-19T04:12:43;11.18;;;4.55;;
39698;SDS011;25372;50.582;12.250;2023-10-19T04:23:04;14.27;;;5.28;;
39698;SDS011;25372;50.582;12.250;2023-10-19T04:33:31;10.90;;;5.18;;
39698;SDS011;25372;50.582;12.250;2023-10-19T04:43:54;17.47;;;6.27;;
39698;SDS011;25372;50.582;12.250;2023-10-19T04:54:19;11.35;;;6.20;;
39698;SDS011;25372;50.582;12.250;2023-10-19T05:04:40;10.25;;;5.95;;
39698;SDS011;25372;50.582;12.250;2023-10-19T05:15:02;14.18;;;6.32;;
39698;SDS011;25372;50.582;12.250;2023-10-19T05:35:48;13.40;;;7.10;;
39698;SDS011;25372;50.582;12.250;2023-10-19T05:46:08;13.50;;;6.03;;
39698;SDS011;25372;50.582;12.250;2023-10-19T05:56:31;15.90;;;7.70;;
39698;SDS011;25372;50.582;12.250;2023-10-19T06:06:54;20.80;;;9.37;;
39698;SDS011;25372;50.582;12.250;2023-10-19T06:17:17;15.77;;;8.27;;
39698;SDS011;25372;50.582;12.250;2023-10-19T06:27:38;18.70;;;8.23;;
39698;SDS011;25372;50.582;12.250;2023-10-19T06:38:00;17.75;;;9.15;;
39698;SDS011;25372;50.582;12.250;2023-10-19T06:48:23;16.33;;;9.10;;
39698;SDS011;25372;50.582;12.250;2023-10-19T06:58:45;19.30;;;9.38;;
39698;SDS011;25372;50.582;12.250;2023-10-19T07:09:06;22.83;;;10.25;;
39698;SDS011;25372;50.582;12.250;2023-10-19T07:19:31;15.07;;;10.10;;
39698;SDS011;25372;50.582;12.250;2023-10-19T07:29:51;15.25;;;8.00;;
39698;SDS011;25372;50.582;12.250;2023-10-19T07:40:13;27.40;;;11.52;;
39698;SDS011;25372;50.582;12.250;2023-10-19T07:50:35;22.85;;;10.30;;
39698;SDS011;25372;50.582;12.250;2023-10-19T08:00:57;20.50;;;11.00;;
39698;SDS011;25372;50.582;12.250;2023-10-19T08:11:19;18.15;;;10.70;;
39698;SDS011;25372;50.582;12.250;2023-10-19T08:21:42;27.13;;;10.98;;
39698;SDS011;25372;50.582;12.250;2023-10-19T08:32:04;21.65;;;10.18;;
39698;SDS011;25372;50.582;12.250;2023-10-19T08:42:27;22.23;;;11.25;;
39698;SDS011;25372;50.582;12.250;2023-10-19T08:52:50;27.40;;;11.30;;
39698;SDS011;25372;50.582;12.250;2023-10-19T09:03:15;17.58;;;9.63;;
39698;SDS011;25372;50.582;12.250;2023-10-19T09:13:43;24.10;;;9.52;;
39698;SDS011;25372;50.582;12.250;2023-10-19T09:24:07;20.90;;;8.68;;
39698;SDS011;25372;50.582;12.250;2023-10-19T09:34:30;17.70;;;9.57;;
39698;SDS011;25372;50.582;12.250;2023-10-19T09:44:54;17.02;;;8.65;;
39698;SDS011;25372;50.582;12.250;2023-10-19T09:55:24;15.45;;;8.32;;
39698;SDS011;25372;50.582;12.250;2023-10-19T10:05:51;13.95;;;7.50;;
39698;SDS011;25372;50.582;12.250;2023-10-19T10:16:15;12.18;;;6.65;;
39698;SDS011;25372;50.582;12.250;2023-10-19T10:37:21;14.35;;;7.30;;
39698;SDS011;25372;50.582;12.250;2023-10-19T10:47:44;11.55;;;7.47;;
39698;SDS011;25372;50.582;12.250;2023-10-19T10:58:05;16.27;;;9.15;;
39698;SDS011;25372;50.582;12.250;2023-10-19T11:08:27;16.88;;;7.63;;
39698;SDS011;25372;50.582;12.250;2023-10-19T11:18:48;16.83;;;8.40;;
39698;SDS011;25372;50.582;12.250;2023-10-19T11:29:16;15.35;;;8.40;;
39698;SDS011;25372;50.582;12.250;2023-10-19T11:39:37;17.83;;;8.48;;
39698;SDS011;25372;50.582;12.250;2023-10-19T11:49:59;18.42;;;9.65;;
39698;SDS011;25372;50.582;12.250;2023-10-19T12:00:19;17.42;;;9.80;;
39698;SDS011;25372;50.582;12.250;2023-10-19T12:10:45;16.23;;;8.67;;
39698;SDS011;25372;50.582;12.250;2023-10-19T12:21:06;20.92;;;8.75;;
39698;SDS011;25372;50.582;12.250;2023-10-19T12:31:32;19.93;;;8.77;;
39698;SDS011;25372;50.582;12.250;2023-10-19T12:41:53;23.33;;;8.90;;
39698;SDS011;25372;50.582;12.250;2023-10-19T12:52:15;20.30;;;8.65;;
39698;SDS011;25372;50.582;12.250;2023-10-19T13:02:37;20.02;;;9.38;;
39698;SDS011;25372;50.582;12.250;2023-10-19T13:13:00;17.77;;;9.90;;
39698;SDS011;25372;50.582;12.250;2023-10-19T13:23:22;19.75;;;10.13;;
39698;SDS011;25372;50.582;12.250;2023-10-19T13:33:44;18.35;;;9.43;;
39698;SDS011;25372;50.582;12.250;2023-10-19T13:44:07;17.88;;;9.80;;
39698;SDS011;25372;50.582;12.250;2023-10-19T13:54:29;16.08;;;9.00;;
39698;SDS011;25372;50.582;12.250;2023-10-19T14:04:50;20.92;;;10.73;;
39698;SDS011;25372;50.582;12.250;2023-10-19T14:15:14;20.27;;;10.13;;
39698;SDS011;25372;50.582;12.250;2023-10-19T14:25:37;24.73;;;12.93;;
39698;SDS011;25372;50.582;12.250;2023-10-19T14:36:00;23.90;;;10.43;;
39698;SDS011;25372;50.582;12.250;2023-10-19T14:46:21;25.02;;;11.57;;
39698;SDS011;25372;50.582;12.250;2023-10-19T14:56:43;24.63;;;10.70;;
39698;SDS011;25372;50.582;12.250;2023-10-19T15:07:04;21.50;;;10.05;;
39698;SDS011;25372;50.582;12.250;2023-10-19T15:17:27;23.40;;;10.75;;
39698;SDS011;25372;50.582;12.250;2023-10-19T15:27:48;21.85;;;10.90;;
39698;SDS011;25372;50.582;12.250;2023-10-19T15:38:10;21.20;;;10.13;;
39698;SDS011;25372;50.582;12.250;2023-10-19T15:48:31;28.00;;;12.18;;
39698;SDS011;25372;50.582;12.250;2023-10-19T15:58:55;26.20;;;11.15;;
39698;SDS011;25372;50.582;12.250;2023-10-19T16:09:16;25.98;;;11.77;;
39698;SDS011;25372;50.582;12.250;2023-10-19T16:19:40;31.05;;;11.95;;
39698;SDS011;25372;50.582;12.250;2023-10-19T16:30:01;26.70;;;12.68;;
39698;SDS011;25372;50.582;12.250;2023-10-19T16:40:25;29.63;;;14.32;;
39698;SDS011;25372;50.582;12.250;2023-10-19T16:50:47;27.88;;;12.77;;
39698;SDS011;25372;50.582;12.250;2023-10-19T17:01:10;31.02;;;12.57;;
39698;SDS011;25372;50.582;12.250;2023-10-19T17:11:32;29.85;;;15.23;;
39698;SDS011;25372;50.582;12.250;2023-10-19T17:21:54;31.65;;;13.02;;
39698;SDS011;25372;50.582;12.250;2023-10-19T17:32:15;33.00;;;14.45;;
39698;SDS011;25372;50.582;12.250;2023-10-19T17:42:37;27.58;;;13.10;;
39698;SDS011;25372;50.582;12.250;2023-10-19T17:52:58;29.75;;;13.07;;
39698;SDS011;25372;50.582;12.250;2023-10-19T18:03:20;33.70;;;14.00;;
39698;SDS011;25372;50.582;12.250;2023-10-19T18:13:44;33.92;;;14.93;;
39698;SDS011;25372;50.582;12.250;2023-10-19T18:24:07;33.30;;;14.77;;
39698;SDS011;25372;50.582;12.250;2023-10-19T18:34:28;34.47;;;13.77;;
39698;SDS011;25372;50.582;12.250;2023-10-19T18:44:50;32.00;;;13.23;;
39698;SDS011;25372;50.582;12.250;2023-10-19T18:55:12;28.52;;;13.30;;
39698;SDS011;25372;50.582;12.250;2023-10-19T19:05:39;36.00;;;14.23;;
39698;SDS011;25372;50.582;12.250;2023-10-19T19:15:59;33.50;;;13.65;;
39698;SDS011;25372;50.582;12.250;2023-10-19T19:26:22;35.33;;;14.60;;
39698;SDS011;25372;50.582;12.250;2023-10-19T19:36:43;41.35;;;17.42;;
39698;SDS011;25372;50.582;12.250;2023-10-19T19:47:07;40.90;;;15.35;;
39698;SDS011;25372;50.582;12.250;2023-10-19T19:57:28;33.20;;;14.27;;
39698;SDS011;25372;50.582;12.250;2023-10-19T20:07:50;37.60;;;15.40;;
39698;SDS011;25372;50.582;12.250;2023-10-19T20:18:12;32.83;;;14.63;;
39698;SDS011;25372;50.582;12.250;2023-10-19T20:28:34;43.13;;;16.55;;
39698;SDS011;25372;50.582;12.250;2023-10-19T20:38:57;40.53;;;16.88;;
39698;SDS011;25372;50.582;12.250;2023-10-19T20:49:21;41.05;;;17.02;;
39698;SDS011;25372;50.582;12.250;2023-10-19T20:59:42;41.10;;;16.17;;
39698;SDS011;25372;50.582;12.250;2023-10-19T21:10:05;36.88;;;16.60;;
39698;SDS011;25372;50.582;12.250;2023-10-19T21:20:29;40.50;;;18.13;;
39698;SDS011;25372;50.582;12.250;2023-10-19T21:30:51;44.65;;;18.35;;
39698;SDS011;25372;50.582;12.250;2023-10-19T21:41:15;44.65;;;19.33;;
39698;SDS011;25372;50.582;12.250;2023-10-19T21:51:37;49.50;;;17.08;;
39698;SDS011;25372;50.582;12.250;2023-10-19T22:01:59;49.30;;;18.05;;
39698;SDS011;25372;50.582;12.250;2023-10-19T22:12:21;46.45;;;20.05;;
39698;SDS011;25372;50.582;12.250;2023-10-19T22:22:43;53.20;;;21.23;;
39698;SDS011;25372;50.582;12.250;2023-10-19T22:33:05;39.85;;;18.13;;
39698;SDS011;25372;50.582;12.250;2023-10-19T22:43:26;40.85;;;19.50;;
39698;SDS011;25372;50.582;12.250;2023-10-19T22:53:48;46.45;;;19.60;;
39698;SDS011;25372;50.582;12.250;2023-10-19T23:04:09;53.80;;;20.15;;
39698;SDS011;25372;50.582;12.250;2023-10-19T23:14:31;53.72;;;20.55;;
39698;SDS011;25372;50.582;12.250;2023-10-19T23:24:52;48.13;;;19.70;;
39698;SDS011;25372;50.582;12.250;2023-10-19T23:35:16;49.03;;;21.20;;
39698;SDS011;25372;50.582;12.250;2023-10-19T23:45:37;43.85;;;19.27;;
39698;SDS011;25372;50.582;12.250;2023-10-19T23:55:59;46.38;;;18.17;;
